sensor_id;sensor_type;location;lat;lon;timestamp;P1;durP1;ratioP1;P2;durP2;ratioP2
75216;SDS011;63800;51.972;5.682;2023-07-22T00:01:20;13.05;;;7.97;;
75216;SDS011;63800;51.972;5.682;2023-07-22T00:03:46;11.15;;;7.25;;
75216;SDS011;63800;51.972;5.682;2023-07-22T00:06:11;12.73;;;7.68;;
75216;SDS011;63800;51.972;5.682;2023-07-22T00:08:37;12.98;;;7.88;;
75216;SDS011;63800;51.972;5.682;2023-07-22T00:11:05;13.02;;;7.88;;
75216;SDS011;63800;51.972;5.682;2023-07-22T00:13:32;12.85;;;8.00;;
75216;SDS011;63800;51.972;5.682;2023-07-22T00:15:58;15.35;;;8.05;;
75216;SDS011;63800;51.972;5.682;2023-07-22T00:18:29;12.80;;;7.72;;
75216;SDS011;63800;51.972;5.682;2023-07-22T00:20:55;13.15;;;8.05;;
75216;SDS011;63800;51.972;5.682;2023-07-22T00:23:21;14.52;;;8.32;;
75216;SDS011;63800;51.972;5.682;2023-07-22T00:25:47;13.48;;;7.80;;
75216;SDS011;63800;51.972;5.682;2023-07-22T00:28:12;14.80;;;8.27;;
75216;SDS011;63800;51.972;5.682;2023-07-22T00:30:38;15.60;;;8.88;;
75216;SDS011;63800;51.972;5.682;2023-07-22T00:33:04;14.63;;;7.57;;
75216;SDS011;63800;51.972;5.682;2023-07-22T00:35:30;13.05;;;7.85;;
75216;SDS011;63800;51.972;5.682;2023-07-22T00:37:56;11.32;;;7.15;;
75216;SDS011;63800;51.972;5.682;2023-07-22T00:40:22;12.40;;;6.82;;
75216;SDS011;63800;51.972;5.682;2023-07-22T00:42:48;11.40;;;6.13;;
75216;SDS011;63800;51.972;5.682;2023-07-22T00:45:13;11.93;;;6.40;;
75216;SDS011;63800;51.972;5.682;2023-07-22T00:47:38;11.35;;;6.65;;
75216;SDS011;63800;51.972;5.682;2023-07-22T00:50:06;12.80;;;6.75;;
75216;SDS011;63800;51.972;5.682;2023-07-22T00:52:32;10.98;;;6.72;;
75216;SDS011;63800;51.972;5.682;2023-07-22T00:54:58;12.23;;;6.70;;
75216;SDS011;63800;51.972;5.682;2023-07-22T00:57:24;10.15;;;5.75;;
75216;SDS011;63800;51.972;5.682;2023-07-22T00:59:50;11.55;;;6.70;;
75216;SDS011;63800;51.972;5.682;2023-07-22T01:02:16;9.38;;;6.05;;
75216;SDS011;63800;51.972;5.682;2023-07-22T01:04:44;8.55;;;5.35;;
75216;SDS011;63800;51.972;5.682;2023-07-22T01:07:10;11.02;;;6.43;;
75216;SDS011;63800;51.972;5.682;2023-07-22T01:09:39;9.60;;;6.43;;
75216;SDS011;63800;51.972;5.682;2023-07-22T01:12:05;12.02;;;6.68;;
75216;SDS011;63800;51.972;5.682;2023-07-22T01:14:35;11.25;;;6.65;;
75216;SDS011;63800;51.972;5.682;2023-07-22T01:17:02;11.73;;;6.43;;
75216;SDS011;63800;51.972;5.682;2023-07-22T01:19:29;11.50;;;7.28;;
75216;SDS011;63800;51.972;5.682;2023-07-22T01:21:56;12.32;;;6.93;;
75216;SDS011;63800;51.972;5.682;2023-07-22T01:24:22;10.98;;;6.35;;
75216;SDS011;63800;51.972;5.682;2023-07-22T01:26:48;11.98;;;6.63;;
75216;SDS011;63800;51.972;5.682;2023-07-22T01:29:13;11.40;;;6.97;;
75216;SDS011;63800;51.972;5.682;2023-07-22T01:31:39;11.63;;;7.20;;
75216;SDS011;63800;51.972;5.682;2023-07-22T01:34:05;13.27;;;8.43;;
75216;SDS011;63800;51.972;5.682;2023-07-22T01:36:31;12.60;;;7.30;;
75216;SDS011;63800;51.972;5.682;2023-07-22T01:38:57;13.95;;;7.68;;
75216;SDS011;63800;51.972;5.682;2023-07-22T01:41:22;12.38;;;7.57;;
75216;SDS011;63800;51.972;5.682;2023-07-22T01:43:48;17.42;;;10.50;;
75216;SDS011;63800;51.972;5.682;2023-07-22T01:46:14;17.80;;;10.57;;
75216;SDS011;63800;51.972;5.682;2023-07-22T01:48:39;21.67;;;11.70;;
75216;SDS011;63800;51.972;5.682;2023-07-22T01:51:05;21.92;;;12.63;;
75216;SDS011;63800;51.972;5.682;2023-07-22T01:53:30;22.73;;;12.57;;
75216;SDS011;63800;51.972;5.682;2023-07-22T01:55:57;20.63;;;12.45;;
75216;SDS011;63800;51.972;5.682;2023-07-22T01:58:22;23.60;;;12.90;;
75216;SDS011;63800;51.972;5.682;2023-07-22T02:00:50;23.58;;;14.20;;
75216;SDS011;63800;51.972;5.682;2023-07-22T02:03:16;22.90;;;13.40;;
75216;SDS011;63800;51.972;5.682;2023-07-22T02:05:41;26.35;;;13.70;;
75216;SDS011;63800;51.972;5.682;2023-07-22T02:08:07;23.75;;;13.23;;
75216;SDS011;63800;51.972;5.682;2023-07-22T02:10:32;24.75;;;13.55;;
75216;SDS011;63800;51.972;5.682;2023-07-22T02:12:57;23.45;;;13.02;;
75216;SDS011;63800;51.972;5.682;2023-07-22T02:15:23;22.08;;;12.98;;
75216;SDS011;63800;51.972;5.682;2023-07-22T02:17:49;24.00;;;13.68;;
75216;SDS011;63800;51.972;5.682;2023-07-22T02:20:15;24.20;;;14.77;;
75216;SDS011;63800;51.972;5.682;2023-07-22T02:22:41;25.58;;;14.15;;
75216;SDS011;63800;51.972;5.682;2023-07-22T02:25:06;23.33;;;13.73;;
75216;SDS011;63800;51.972;5.682;2023-07-22T02:27:32;25.50;;;13.30;;
75216;SDS011;63800;51.972;5.682;2023-07-22T02:29:57;24.55;;;14.23;;
75216;SDS011;63800;51.972;5.682;2023-07-22T02:32:23;25.17;;;14.02;;
75216;SDS011;63800;51.972;5.682;2023-07-22T02:34:48;26.30;;;14.32;;
75216;SDS011;63800;51.972;5.682;2023-07-22T02:37:14;25.33;;;14.27;;
75216;SDS011;63800;51.972;5.682;2023-07-22T02:39:39;24.10;;;13.65;;
75216;SDS011;63800;51.972;5.682;2023-07-22T02:42:05;24.75;;;13.73;;
75216;SDS011;63800;51.972;5.682;2023-07-22T02:44:30;23.63;;;13.50;;
75216;SDS011;63800;51.972;5.682;2023-07-22T02:46:56;23.83;;;14.35;;
75216;SDS011;63800;51.972;5.682;2023-07-22T02:49:21;22.83;;;13.65;;
75216;SDS011;63800;51.972;5.682;2023-07-22T02:51:47;20.50;;;12.18;;
75216;SDS011;63800;51.972;5.682;2023-07-22T02:54:12;22.98;;;13.68;;
75216;SDS011;63800;51.972;5.682;2023-07-22T02:56:38;26.05;;;13.80;;
75216;SDS011;63800;51.972;5.682;2023-07-22T02:59:04;27.65;;;13.52;;
75216;SDS011;63800;51.972;5.682;2023-07-22T03:01:29;24.58;;;13.25;;
75216;SDS011;63800;51.972;5.682;2023-07-22T03:03:55;25.05;;;14.63;;
75216;SDS011;63800;51.972;5.682;2023-07-22T03:06:20;24.00;;;14.05;;
75216;SDS011;63800;51.972;5.682;2023-07-22T03:08:46;27.45;;;14.02;;
75216;SDS011;63800;51.972;5.682;2023-07-22T03:11:13;24.10;;;13.02;;
75216;SDS011;63800;51.972;5.682;2023-07-22T03:13:38;27.20;;;14.15;;
75216;SDS011;63800;51.972;5.682;2023-07-22T03:16:04;23.35;;;14.00;;
75216;SDS011;63800;51.972;5.682;2023-07-22T03:18:30;27.00;;;13.85;;
75216;SDS011;63800;51.972;5.682;2023-07-22T03:20:56;27.42;;;14.45;;
75216;SDS011;63800;51.972;5.682;2023-07-22T03:23:22;28.70;;;15.63;;
75216;SDS011;63800;51.972;5.682;2023-07-22T03:25:48;29.83;;;14.23;;
75216;SDS011;63800;51.972;5.682;2023-07-22T03:28:13;26.52;;;13.68;;
75216;SDS011;63800;51.972;5.682;2023-07-22T03:30:39;27.92;;;14.63;;
75216;SDS011;63800;51.972;5.682;2023-07-22T03:33:04;26.42;;;15.05;;
75216;SDS011;63800;51.972;5.682;2023-07-22T03:35:30;28.92;;;15.85;;
75216;SDS011;63800;51.972;5.682;2023-07-22T03:37:57;29.23;;;14.18;;
75216;SDS011;63800;51.972;5.682;2023-07-22T03:40:23;30.58;;;14.95;;
75216;SDS011;63800;51.972;5.682;2023-07-22T03:42:52;32.45;;;15.23;;
75216;SDS011;63800;51.972;5.682;2023-07-22T03:45:18;23.20;;;13.90;;
75216;SDS011;63800;51.972;5.682;2023-07-22T03:47:45;28.45;;;14.93;;
75216;SDS011;63800;51.972;5.682;2023-07-22T03:50:12;28.23;;;14.55;;
75216;SDS011;63800;51.972;5.682;2023-07-22T03:52:38;30.92;;;15.98;;
75216;SDS011;63800;51.972;5.682;2023-07-22T03:55:03;30.55;;;15.05;;
75216;SDS011;63800;51.972;5.682;2023-07-22T03:57:30;34.13;;;16.90;;
75216;SDS011;63800;51.972;5.682;2023-07-22T03:59:56;31.48;;;15.90;;
75216;SDS011;63800;51.972;5.682;2023-07-22T04:02:22;31.52;;;14.68;;
75216;SDS011;63800;51.972;5.682;2023-07-22T04:04:48;28.70;;;14.57;;
75216;SDS011;63800;51.972;5.682;2023-07-22T04:07:14;31.27;;;15.90;;
75216;SDS011;63800;51.972;5.682;2023-07-22T04:09:40;28.48;;;15.45;;
75216;SDS011;63800;51.972;5.682;2023-07-22T04:12:06;31.58;;;15.70;;
75216;SDS011;63800;51.972;5.682;2023-07-22T04:14:32;29.65;;;15.40;;
75216;SDS011;63800;51.972;5.682;2023-07-22T04:16:57;32.38;;;15.73;;
75216;SDS011;63800;51.972;5.682;2023-07-22T04:19:23;27.42;;;15.25;;
75216;SDS011;63800;51.972;5.682;2023-07-22T04:21:48;30.52;;;15.65;;
75216;SDS011;63800;51.972;5.682;2023-07-22T04:24:14;33.03;;;17.15;;
75216;SDS011;63800;51.972;5.682;2023-07-22T04:26:40;32.35;;;16.23;;
75216;SDS011;63800;51.972;5.682;2023-07-22T04:29:08;31.40;;;15.73;;
75216;SDS011;63800;51.972;5.682;2023-07-22T04:31:34;32.20;;;15.77;;
75216;SDS011;63800;51.972;5.682;2023-07-22T04:34:00;30.95;;;15.25;;
75216;SDS011;63800;51.972;5.682;2023-07-22T04:36:25;34.13;;;16.13;;
75216;SDS011;63800;51.972;5.682;2023-07-22T04:38:50;28.23;;;15.40;;
75216;SDS011;63800;51.972;5.682;2023-07-22T04:41:16;34.78;;;15.63;;
75216;SDS011;63800;51.972;5.682;2023-07-22T04:43:41;33.42;;;16.08;;
75216;SDS011;63800;51.972;5.682;2023-07-22T04:46:07;29.40;;;15.07;;
75216;SDS011;63800;51.972;5.682;2023-07-22T04:48:33;31.65;;;15.98;;
75216;SDS011;63800;51.972;5.682;2023-07-22T04:50:59;30.63;;;14.73;;
75216;SDS011;63800;51.972;5.682;2023-07-22T04:53:24;29.42;;;14.60;;
75216;SDS011;63800;51.972;5.682;2023-07-22T04:55:49;29.02;;;14.60;;
75216;SDS011;63800;51.972;5.682;2023-07-22T04:58:15;31.73;;;15.07;;
75216;SDS011;63800;51.972;5.682;2023-07-22T05:00:41;26.77;;;13.95;;
75216;SDS011;63800;51.972;5.682;2023-07-22T05:03:07;28.85;;;14.88;;
75216;SDS011;63800;51.972;5.682;2023-07-22T05:05:33;33.78;;;16.75;;
75216;SDS011;63800;51.972;5.682;2023-07-22T05:07:58;29.02;;;15.98;;
75216;SDS011;63800;51.972;5.682;2023-07-22T05:10:24;32.30;;;16.60;;
75216;SDS011;63800;51.972;5.682;2023-07-22T05:12:49;33.88;;;17.08;;
75216;SDS011;63800;51.972;5.682;2023-07-22T05:15:15;32.78;;;16.30;;
75216;SDS011;63800;51.972;5.682;2023-07-22T05:17:40;31.95;;;16.17;;
75216;SDS011;63800;51.972;5.682;2023-07-22T05:20:06;35.28;;;18.02;;
75216;SDS011;63800;51.972;5.682;2023-07-22T05:22:35;39.67;;;17.45;;
75216;SDS011;63800;51.972;5.682;2023-07-22T05:25:00;31.00;;;14.95;;
75216;SDS011;63800;51.972;5.682;2023-07-22T05:27:26;37.42;;;16.63;;
75216;SDS011;63800;51.972;5.682;2023-07-22T05:29:52;35.85;;;17.95;;
75216;SDS011;63800;51.972;5.682;2023-07-22T05:32:17;37.33;;;17.58;;
75216;SDS011;63800;51.972;5.682;2023-07-22T05:34:43;36.80;;;16.98;;
75216;SDS011;63800;51.972;5.682;2023-07-22T05:37:08;38.40;;;18.17;;
75216;SDS011;63800;51.972;5.682;2023-07-22T05:39:33;34.05;;;18.10;;
75216;SDS011;63800;51.972;5.682;2023-07-22T05:41:59;39.03;;;19.52;;
75216;SDS011;63800;51.972;5.682;2023-07-22T05:44:24;41.83;;;20.27;;
75216;SDS011;63800;51.972;5.682;2023-07-22T05:46:50;37.55;;;19.92;;
75216;SDS011;63800;51.972;5.682;2023-07-22T05:49:15;38.83;;;20.35;;
75216;SDS011;63800;51.972;5.682;2023-07-22T05:51:41;39.33;;;19.83;;
75216;SDS011;63800;51.972;5.682;2023-07-22T05:54:06;34.78;;;18.73;;
75216;SDS011;63800;51.972;5.682;2023-07-22T05:56:31;38.15;;;20.33;;
75216;SDS011;63800;51.972;5.682;2023-07-22T05:58:57;33.45;;;17.90;;
75216;SDS011;63800;51.972;5.682;2023-07-22T06:01:25;36.45;;;18.67;;
75216;SDS011;63800;51.972;5.682;2023-07-22T06:03:51;39.58;;;20.27;;
75216;SDS011;63800;51.972;5.682;2023-07-22T06:06:16;39.92;;;21.23;;
75216;SDS011;63800;51.972;5.682;2023-07-22T06:08:42;33.83;;;19.55;;
75216;SDS011;63800;51.972;5.682;2023-07-22T06:11:08;36.65;;;19.33;;
75216;SDS011;63800;51.972;5.682;2023-07-22T06:13:33;35.00;;;19.17;;
75216;SDS011;63800;51.972;5.682;2023-07-22T06:15:58;37.15;;;18.33;;
75216;SDS011;63800;51.972;5.682;2023-07-22T06:18:24;34.50;;;18.48;;
75216;SDS011;63800;51.972;5.682;2023-07-22T06:20:49;35.95;;;18.92;;
75216;SDS011;63800;51.972;5.682;2023-07-22T06:23:15;33.00;;;18.35;;
75216;SDS011;63800;51.972;5.682;2023-07-22T06:25:40;33.63;;;17.90;;
75216;SDS011;63800;51.972;5.682;2023-07-22T06:28:06;32.53;;;17.27;;
75216;SDS011;63800;51.972;5.682;2023-07-22T06:30:31;32.40;;;17.70;;
75216;SDS011;63800;51.972;5.682;2023-07-22T06:32:57;39.78;;;20.45;;
75216;SDS011;63800;51.972;5.682;2023-07-22T06:35:22;35.65;;;18.75;;
75216;SDS011;63800;51.972;5.682;2023-07-22T06:37:48;35.17;;;19.45;;
75216;SDS011;63800;51.972;5.682;2023-07-22T06:40:13;37.75;;;19.58;;
75216;SDS011;63800;51.972;5.682;2023-07-22T06:42:39;33.05;;;18.00;;
75216;SDS011;63800;51.972;5.682;2023-07-22T06:45:04;32.17;;;17.67;;
75216;SDS011;63800;51.972;5.682;2023-07-22T06:47:30;33.65;;;16.67;;
75216;SDS011;63800;51.972;5.682;2023-07-22T06:49:56;34.40;;;18.17;;
75216;SDS011;63800;51.972;5.682;2023-07-22T06:52:22;32.80;;;17.98;;
75216;SDS011;63800;51.972;5.682;2023-07-22T06:54:47;37.47;;;18.48;;
75216;SDS011;63800;51.972;5.682;2023-07-22T06:57:13;33.88;;;16.83;;
75216;SDS011;63800;51.972;5.682;2023-07-22T06:59:38;33.25;;;16.70;;
75216;SDS011;63800;51.972;5.682;2023-07-22T07:02:04;32.17;;;16.45;;
75216;SDS011;63800;51.972;5.682;2023-07-22T07:04:30;34.25;;;16.85;;
75216;SDS011;63800;51.972;5.682;2023-07-22T07:06:55;31.40;;;17.48;;
75216;SDS011;63800;51.972;5.682;2023-07-22T07:09:21;31.95;;;17.95;;
75216;SDS011;63800;51.972;5.682;2023-07-22T07:11:46;31.58;;;17.35;;
75216;SDS011;63800;51.972;5.682;2023-07-22T07:14:12;35.17;;;17.92;;
75216;SDS011;63800;51.972;5.682;2023-07-22T07:16:37;35.42;;;18.42;;
75216;SDS011;63800;51.972;5.682;2023-07-22T07:19:03;30.67;;;16.95;;
75216;SDS011;63800;51.972;5.682;2023-07-22T07:21:28;32.55;;;18.42;;
75216;SDS011;63800;51.972;5.682;2023-07-22T07:23:54;32.58;;;17.08;;
75216;SDS011;63800;51.972;5.682;2023-07-22T07:26:20;32.38;;;16.38;;
75216;SDS011;63800;51.972;5.682;2023-07-22T07:28:47;28.13;;;16.38;;
75216;SDS011;63800;51.972;5.682;2023-07-22T07:31:13;30.40;;;16.65;;
75216;SDS011;63800;51.972;5.682;2023-07-22T07:33:38;28.77;;;16.33;;
75216;SDS011;63800;51.972;5.682;2023-07-22T07:36:04;29.17;;;15.48;;
75216;SDS011;63800;51.972;5.682;2023-07-22T07:38:30;29.13;;;16.55;;
75216;SDS011;63800;51.972;5.682;2023-07-22T07:40:57;29.55;;;16.77;;
75216;SDS011;63800;51.972;5.682;2023-07-22T07:43:28;28.17;;;15.23;;
75216;SDS011;63800;51.972;5.682;2023-07-22T07:48:37;27.55;;;15.52;;
75216;SDS011;63800;51.972;5.682;2023-07-22T07:51:03;27.80;;;15.50;;
75216;SDS011;63800;51.972;5.682;2023-07-22T07:53:28;26.52;;;14.43;;
75216;SDS011;63800;51.972;5.682;2023-07-22T07:55:54;25.00;;;13.65;;
75216;SDS011;63800;51.972;5.682;2023-07-22T07:58:19;26.80;;;13.77;;
75216;SDS011;63800;51.972;5.682;2023-07-22T08:00:45;26.95;;;14.13;;
75216;SDS011;63800;51.972;5.682;2023-07-22T08:03:10;21.25;;;12.43;;
75216;SDS011;63800;51.972;5.682;2023-07-22T08:05:36;22.50;;;12.57;;
75216;SDS011;63800;51.972;5.682;2023-07-22T08:08:01;22.08;;;12.00;;
75216;SDS011;63800;51.972;5.682;2023-07-22T08:10:27;24.30;;;12.55;;
75216;SDS011;63800;51.972;5.682;2023-07-22T08:12:52;23.15;;;12.25;;
75216;SDS011;63800;51.972;5.682;2023-07-22T08:15:18;22.42;;;11.77;;
75216;SDS011;63800;51.972;5.682;2023-07-22T08:17:43;19.85;;;11.15;;
75216;SDS011;63800;51.972;5.682;2023-07-22T08:20:09;21.92;;;11.90;;
75216;SDS011;63800;51.972;5.682;2023-07-22T08:22:36;20.88;;;11.77;;
75216;SDS011;63800;51.972;5.682;2023-07-22T08:25:01;21.48;;;11.48;;
75216;SDS011;63800;51.972;5.682;2023-07-22T08:27:27;22.77;;;12.10;;
75216;SDS011;63800;51.972;5.682;2023-07-22T08:29:53;20.73;;;11.25;;
75216;SDS011;63800;51.972;5.682;2023-07-22T08:32:19;19.65;;;11.43;;
75216;SDS011;63800;51.972;5.682;2023-07-22T08:34:44;22.70;;;11.85;;
75216;SDS011;63800;51.972;5.682;2023-07-22T08:37:10;19.77;;;12.10;;
75216;SDS011;63800;51.972;5.682;2023-07-22T08:39:36;16.58;;;10.20;;
75216;SDS011;63800;51.972;5.682;2023-07-22T08:42:02;17.70;;;10.23;;
75216;SDS011;63800;51.972;5.682;2023-07-22T08:44:29;19.67;;;10.35;;
75216;SDS011;63800;51.972;5.682;2023-07-22T08:47:00;18.20;;;10.00;;
75216;SDS011;63800;51.972;5.682;2023-07-22T08:49:28;16.90;;;10.32;;
75216;SDS011;63800;51.972;5.682;2023-07-22T08:51:55;18.52;;;10.90;;
75216;SDS011;63800;51.972;5.682;2023-07-22T08:54:23;20.27;;;9.60;;
75216;SDS011;63800;51.972;5.682;2023-07-22T08:56:49;19.25;;;10.88;;
75216;SDS011;63800;51.972;5.682;2023-07-22T08:59:15;17.63;;;9.38;;
75216;SDS011;63800;51.972;5.682;2023-07-22T09:01:42;17.65;;;10.10;;
75216;SDS011;63800;51.972;5.682;2023-07-22T09:04:09;18.15;;;10.38;;
75216;SDS011;63800;51.972;5.682;2023-07-22T09:06:34;16.73;;;9.82;;
75216;SDS011;63800;51.972;5.682;2023-07-22T09:09:01;17.13;;;9.30;;
75216;SDS011;63800;51.972;5.682;2023-07-22T09:11:31;17.83;;;10.98;;
75216;SDS011;63800;51.972;5.682;2023-07-22T09:13:57;18.25;;;10.65;;
75216;SDS011;63800;51.972;5.682;2023-07-22T09:16:24;19.75;;;10.85;;
75216;SDS011;63800;51.972;5.682;2023-07-22T09:18:54;16.95;;;9.32;;
75216;SDS011;63800;51.972;5.682;2023-07-22T09:21:20;17.67;;;9.95;;
75216;SDS011;63800;51.972;5.682;2023-07-22T09:23:46;16.55;;;9.55;;
75216;SDS011;63800;51.972;5.682;2023-07-22T09:26:11;16.85;;;9.40;;
75216;SDS011;63800;51.972;5.682;2023-07-22T09:28:55;13.18;;;7.82;;
75216;SDS011;63800;51.972;5.682;2023-07-22T09:31:22;12.18;;;7.72;;
75216;SDS011;63800;51.972;5.682;2023-07-22T09:33:52;14.88;;;8.43;;
75216;SDS011;63800;51.972;5.682;2023-07-22T09:36:21;14.32;;;8.00;;
75216;SDS011;63800;51.972;5.682;2023-07-22T09:39:01;12.30;;;7.57;;
75216;SDS011;63800;51.972;5.682;2023-07-22T09:41:28;14.05;;;7.80;;
75216;SDS011;63800;51.972;5.682;2023-07-22T09:43:55;12.70;;;7.22;;
75216;SDS011;63800;51.972;5.682;2023-07-22T09:46:21;12.75;;;6.60;;
75216;SDS011;63800;51.972;5.682;2023-07-22T09:48:55;10.82;;;6.95;;
75216;SDS011;63800;51.972;5.682;2023-07-22T09:51:21;11.95;;;7.10;;
75216;SDS011;63800;51.972;5.682;2023-07-22T09:53:47;12.77;;;6.95;;
75216;SDS011;63800;51.972;5.682;2023-07-22T09:56:18;11.38;;;7.63;;
75216;SDS011;63800;51.972;5.682;2023-07-22T09:58:43;13.65;;;7.97;;
75216;SDS011;63800;51.972;5.682;2023-07-22T10:01:10;13.27;;;7.38;;
75216;SDS011;63800;51.972;5.682;2023-07-22T10:03:39;13.48;;;7.68;;
75216;SDS011;63800;51.972;5.682;2023-07-22T10:06:08;13.55;;;7.97;;
75216;SDS011;63800;51.972;5.682;2023-07-22T10:08:34;12.45;;;7.65;;
75216;SDS011;63800;51.972;5.682;2023-07-22T10:11:01;11.93;;;7.35;;
75216;SDS011;63800;51.972;5.682;2023-07-22T10:13:29;13.57;;;7.38;;
75216;SDS011;63800;51.972;5.682;2023-07-22T10:15:55;12.25;;;7.60;;
75216;SDS011;63800;51.972;5.682;2023-07-22T10:18:21;13.50;;;7.97;;
75216;SDS011;63800;51.972;5.682;2023-07-22T10:20:47;11.65;;;6.55;;
75216;SDS011;63800;51.972;5.682;2023-07-22T10:23:14;11.85;;;6.97;;
75216;SDS011;63800;51.972;5.682;2023-07-22T10:25:40;12.85;;;7.15;;
75216;SDS011;63800;51.972;5.682;2023-07-22T10:28:07;13.02;;;7.40;;
75216;SDS011;63800;51.972;5.682;2023-07-22T10:30:33;11.80;;;7.03;;
75216;SDS011;63800;51.972;5.682;2023-07-22T10:32:59;8.93;;;6.70;;
75216;SDS011;63800;51.972;5.682;2023-07-22T10:37:56;7.80;;;5.65;;
75216;SDS011;63800;51.972;5.682;2023-07-22T10:43:10;9.70;;;5.65;;
75216;SDS011;63800;51.972;5.682;2023-07-22T10:45:40;9.05;;;5.85;;
75216;SDS011;63800;51.972;5.682;2023-07-22T10:48:10;10.73;;;6.32;;
75216;SDS011;63800;51.972;5.682;2023-07-22T10:53:19;9.43;;;5.75;;
75216;SDS011;63800;51.972;5.682;2023-07-22T10:56:07;8.90;;;5.78;;
75216;SDS011;63800;51.972;5.682;2023-07-22T10:59:00;7.97;;;5.70;;
75216;SDS011;63800;51.972;5.682;2023-07-22T11:07:07;9.20;;;5.38;;
75216;SDS011;63800;51.972;5.682;2023-07-22T11:09:33;7.20;;;5.18;;
75216;SDS011;63800;51.972;5.682;2023-07-22T11:14:39;9.48;;;5.50;;
75216;SDS011;63800;51.972;5.682;2023-07-22T11:17:06;7.47;;;5.03;;
75216;SDS011;63800;51.972;5.682;2023-07-22T11:19:36;10.15;;;5.60;;
75216;SDS011;63800;51.972;5.682;2023-07-22T11:22:02;10.10;;;5.07;;
75216;SDS011;63800;51.972;5.682;2023-07-22T11:24:28;10.15;;;5.60;;
75216;SDS011;63800;51.972;5.682;2023-07-22T11:26:54;8.55;;;5.40;;
75216;SDS011;63800;51.972;5.682;2023-07-22T11:29:20;10.63;;;5.05;;
75216;SDS011;63800;51.972;5.682;2023-07-22T11:31:47;7.18;;;4.70;;
75216;SDS011;63800;51.972;5.682;2023-07-22T11:34:17;7.15;;;4.68;;
75216;SDS011;63800;51.972;5.682;2023-07-22T11:36:45;5.90;;;4.85;;
75216;SDS011;63800;51.972;5.682;2023-07-22T11:39:13;9.52;;;5.05;;
75216;SDS011;63800;51.972;5.682;2023-07-22T11:41:40;8.25;;;4.70;;
75216;SDS011;63800;51.972;5.682;2023-07-22T11:44:09;6.88;;;4.47;;
75216;SDS011;63800;51.972;5.682;2023-07-22T11:51:50;6.10;;;4.07;;
75216;SDS011;63800;51.972;5.682;2023-07-22T11:54:20;6.32;;;3.75;;
75216;SDS011;63800;51.972;5.682;2023-07-22T11:56:46;7.53;;;3.90;;
75216;SDS011;63800;51.972;5.682;2023-07-22T11:59:11;6.07;;;3.50;;
75216;SDS011;63800;51.972;5.682;2023-07-22T12:01:37;5.20;;;3.70;;
75216;SDS011;63800;51.972;5.682;2023-07-22T12:04:09;5.05;;;3.47;;
75216;SDS011;63800;51.972;5.682;2023-07-22T12:06:36;8.20;;;3.80;;
75216;SDS011;63800;51.972;5.682;2023-07-22T12:09:02;7.82;;;4.35;;
75216;SDS011;63800;51.972;5.682;2023-07-22T12:11:27;5.35;;;3.65;;
75216;SDS011;63800;51.972;5.682;2023-07-22T12:14:10;6.32;;;3.72;;
75216;SDS011;63800;51.972;5.682;2023-07-22T12:16:37;6.55;;;3.60;;
75216;SDS011;63800;51.972;5.682;2023-07-22T12:19:07;4.30;;;3.60;;
75216;SDS011;63800;51.972;5.682;2023-07-22T12:21:33;6.50;;;4.05;;
75216;SDS011;63800;51.972;5.682;2023-07-22T12:23:59;6.53;;;3.80;;
75216;SDS011;63800;51.972;5.682;2023-07-22T12:26:25;6.05;;;4.38;;
75216;SDS011;63800;51.972;5.682;2023-07-22T12:28:51;5.53;;;3.95;;
75216;SDS011;63800;51.972;5.682;2023-07-22T12:31:17;5.50;;;4.43;;
75216;SDS011;63800;51.972;5.682;2023-07-22T12:33:42;7.97;;;5.18;;
75216;SDS011;63800;51.972;5.682;2023-07-22T12:36:08;10.23;;;5.57;;
75216;SDS011;63800;51.972;5.682;2023-07-22T12:38:33;8.30;;;6.03;;
75216;SDS011;63800;51.972;5.682;2023-07-22T12:40:59;10.10;;;5.75;;
75216;SDS011;63800;51.972;5.682;2023-07-22T12:43:25;9.27;;;6.65;;
75216;SDS011;63800;51.972;5.682;2023-07-22T12:45:51;11.75;;;7.70;;
75216;SDS011;63800;51.972;5.682;2023-07-22T12:48:16;9.13;;;7.35;;
75216;SDS011;63800;51.972;5.682;2023-07-22T12:50:42;9.65;;;8.18;;
75216;SDS011;63800;51.972;5.682;2023-07-22T12:53:08;9.45;;;7.50;;
75216;SDS011;63800;51.972;5.682;2023-07-22T12:55:33;9.82;;;7.20;;
75216;SDS011;63800;51.972;5.682;2023-07-22T12:57:59;10.70;;;7.55;;
75216;SDS011;63800;51.972;5.682;2023-07-22T13:00:24;9.40;;;6.85;;
75216;SDS011;63800;51.972;5.682;2023-07-22T13:02:50;10.98;;;7.53;;
75216;SDS011;63800;51.972;5.682;2023-07-22T13:05:15;10.27;;;7.00;;
75216;SDS011;63800;51.972;5.682;2023-07-22T13:07:41;10.80;;;6.70;;
75216;SDS011;63800;51.972;5.682;2023-07-22T13:10:06;6.68;;;5.72;;
75216;SDS011;63800;51.972;5.682;2023-07-22T13:12:36;8.50;;;5.95;;
75216;SDS011;63800;51.972;5.682;2023-07-22T13:15:02;6.82;;;5.10;;
75216;SDS011;63800;51.972;5.682;2023-07-22T13:17:28;6.15;;;4.57;;
75216;SDS011;63800;51.972;5.682;2023-07-22T13:19:54;5.95;;;4.63;;
75216;SDS011;63800;51.972;5.682;2023-07-22T13:22:19;6.72;;;5.32;;
75216;SDS011;63800;51.972;5.682;2023-07-22T13:24:44;9.43;;;5.60;;
75216;SDS011;63800;51.972;5.682;2023-07-22T13:27:10;7.78;;;5.35;;
75216;SDS011;63800;51.972;5.682;2023-07-22T13:29:35;8.57;;;5.60;;
75216;SDS011;63800;51.972;5.682;2023-07-22T13:32:01;5.45;;;4.55;;
75216;SDS011;63800;51.972;5.682;2023-07-22T13:34:26;8.18;;;5.15;;
75216;SDS011;63800;51.972;5.682;2023-07-22T13:36:52;6.38;;;5.20;;
75216;SDS011;63800;51.972;5.682;2023-07-22T13:39:17;9.02;;;5.63;;
75216;SDS011;63800;51.972;5.682;2023-07-22T13:41:42;9.15;;;5.47;;
75216;SDS011;63800;51.972;5.682;2023-07-22T13:44:08;8.40;;;5.55;;
75216;SDS011;63800;51.972;5.682;2023-07-22T13:46:33;10.40;;;6.75;;
75216;SDS011;63800;51.972;5.682;2023-07-22T13:48:59;10.40;;;6.05;;
75216;SDS011;63800;51.972;5.682;2023-07-22T13:51:24;12.77;;;6.07;;
75216;SDS011;63800;51.972;5.682;2023-07-22T13:53:50;26.77;;;8.82;;
75216;SDS011;63800;51.972;5.682;2023-07-22T13:56:19;25.08;;;8.18;;
75216;SDS011;63800;51.972;5.682;2023-07-22T13:58:45;10.88;;;7.10;;
75216;SDS011;63800;51.972;5.682;2023-07-22T14:01:10;8.30;;;6.13;;
75216;SDS011;63800;51.972;5.682;2023-07-22T14:03:36;8.02;;;5.43;;
75216;SDS011;63800;51.972;5.682;2023-07-22T14:06:01;7.53;;;4.60;;
75216;SDS011;63800;51.972;5.682;2023-07-22T14:08:27;5.53;;;4.00;;
75216;SDS011;63800;51.972;5.682;2023-07-22T14:10:53;7.68;;;4.32;;
75216;SDS011;63800;51.972;5.682;2023-07-22T14:13:19;5.05;;;3.80;;
75216;SDS011;63800;51.972;5.682;2023-07-22T14:15:44;7.55;;;4.50;;
75216;SDS011;63800;51.972;5.682;2023-07-22T14:18:10;8.73;;;3.85;;
75216;SDS011;63800;51.972;5.682;2023-07-22T14:20:35;5.78;;;3.97;;
75216;SDS011;63800;51.972;5.682;2023-07-22T14:23:01;6.47;;;4.00;;
75216;SDS011;63800;51.972;5.682;2023-07-22T14:25:28;8.00;;;4.25;;
75216;SDS011;63800;51.972;5.682;2023-07-22T14:27:53;7.80;;;3.63;;
75216;SDS011;63800;51.972;5.682;2023-07-22T14:30:19;7.55;;;3.80;;
75216;SDS011;63800;51.972;5.682;2023-07-22T14:32:44;7.15;;;4.07;;
75216;SDS011;63800;51.972;5.682;2023-07-22T14:35:10;5.82;;;3.50;;
75216;SDS011;63800;51.972;5.682;2023-07-22T14:37:36;6.15;;;3.80;;
75216;SDS011;63800;51.972;5.682;2023-07-22T14:40:02;5.38;;;3.42;;
75216;SDS011;63800;51.972;5.682;2023-07-22T14:42:29;4.72;;;3.38;;
75216;SDS011;63800;51.972;5.682;2023-07-22T14:44:55;5.00;;;2.78;;
75216;SDS011;63800;51.972;5.682;2023-07-22T14:47:20;5.38;;;2.90;;
75216;SDS011;63800;51.972;5.682;2023-07-22T14:49:46;5.25;;;3.45;;